createdAt,value
2018-07-10T00:02:38.289Z,2.50
2018-07-10T00:05:29.413Z,2.47
2018-07-10T00:10:15.937Z,2.40
2018-07-10T00:12:43.957Z,2.22
2018-07-10T00:15:14.062Z,2.30
2018-07-10T00:17:42.128Z,1.87
2018-07-10T00:20:10.292Z,2.27
2018-07-10T00:22:38.437Z,2.20
2018-07-10T00:25:06.562Z,2.00
2018-07-10T00:27:34.579Z,2.05
2018-07-10T00:30:02.669Z,2.02
2018-07-10T00:32:31.129Z,2.10
2018-07-10T00:34:59.367Z,1.80
2018-07-10T00:37:27.648Z,1.82
2018-07-10T00:39:55.827Z,1.90
2018-07-10T00:42:24.928Z,1.90
2018-07-10T00:44:52.905Z,1.90
2018-07-10T00:47:21.473Z,2.10
2018-07-10T00:49:49.593Z,2.08
2018-07-10T00:52:29.825Z,1.80
2018-07-10T00:54:58.001Z,2.02
2018-07-10T00:57:26.183Z,2.10
2018-07-10T00:59:54.476Z,2.10
2018-07-10T01:02:22.855Z,2.00
2018-07-10T01:04:50.885Z,2.00
2018-07-10T01:07:19.032Z,2.27
2018-07-10T01:09:47.265Z,2.25
2018-07-10T01:12:15.514Z,2.45
2018-07-10T01:14:43.693Z,2.22
2018-07-10T01:17:11.926Z,2.10
2018-07-10T01:19:40.451Z,2.20
2018-07-10T01:22:08.905Z,1.70
2018-07-10T01:24:37.333Z,1.90
2018-07-10T01:27:05.580Z,2.17
2018-07-10T01:29:49.437Z,2.30
2018-07-10T01:32:18.268Z,2.17
2018-07-10T01:34:46.488Z,2.40
2018-07-10T01:37:14.928Z,2.40
2018-07-10T01:39:44.129Z,2.37
2018-07-10T01:42:12.212Z,2.02
2018-07-10T01:44:40.422Z,2.10
2018-07-10T01:47:08.606Z,2.30
2018-07-10T01:49:36.768Z,2.00
2018-07-10T01:52:04.881Z,2.00
2018-07-10T01:54:33.022Z,2.10
2018-07-10T01:57:01.201Z,2.00
2018-07-10T01:59:29.515Z,2.30
2018-07-10T02:01:57.756Z,2.02
2018-07-10T02:04:25.899Z,2.20
2018-07-10T02:06:54.116Z,1.95
2018-07-10T02:09:22.320Z,2.22
2018-07-10T02:11:50.562Z,1.95
2018-07-10T02:14:18.627Z,2.58
2018-07-10T02:16:46.884Z,2.70
2018-07-10T02:19:15.267Z,2.85
2018-07-10T02:21:43.524Z,3.08
2018-07-10T02:24:13.177Z,2.50
2018-07-10T02:26:41.430Z,3.30
2018-07-10T02:29:10.458Z,2.90
2018-07-10T02:31:38.530Z,2.90
2018-07-10T02:34:06.689Z,2.42
2018-07-10T02:36:35.180Z,2.42
2018-07-10T02:39:03.810Z,2.70
2018-07-10T02:41:32.089Z,2.60
2018-07-10T02:44:02.476Z,3.08
2018-07-10T02:46:31.932Z,2.52
2018-07-10T02:49:16.902Z,3.05
2018-07-10T02:52:02.829Z,2.90
2018-07-10T02:54:39.564Z,3.00
2018-07-10T02:57:09.117Z,3.02
2018-07-10T02:59:40.490Z,2.95
2018-07-10T03:02:16.724Z,3.05
2018-07-10T03:04:45.187Z,2.65
2018-07-10T03:07:18.182Z,2.67
2018-07-10T03:09:47.240Z,2.80
2018-07-10T03:12:16.832Z,2.77
2018-07-10T03:14:45.172Z,5.12
2018-07-10T03:17:17.208Z,3.30
2018-07-10T03:19:45.449Z,3.12
2018-07-10T03:22:14.247Z,2.95
2018-07-10T03:24:42.316Z,3.20
2018-07-10T03:27:10.574Z,3.70
2018-07-10T03:29:38.620Z,3.67
2018-07-10T03:32:06.995Z,3.20
2018-07-10T03:34:36.122Z,3.60
2018-07-10T03:37:05.111Z,3.40
2018-07-10T03:39:33.589Z,3.02
2018-07-10T03:42:01.827Z,2.65
2018-07-10T03:44:30.406Z,2.90
2018-07-10T03:46:58.582Z,2.95
2018-07-10T03:49:26.832Z,2.90
2018-07-10T03:51:55.993Z,3.45
2018-07-10T03:54:24.448Z,3.60
2018-07-10T03:56:52.737Z,3.33
2018-07-10T03:59:20.980Z,3.20
2018-07-10T04:01:49.169Z,3.40
2018-07-10T04:04:17.405Z,5.60
2018-07-10T04:06:46.044Z,4.50
2018-07-10T04:09:14.307Z,4.10
2018-07-10T04:11:47.296Z,2.72
2018-07-10T04:14:16.490Z,3.45
2018-07-10T04:16:45.497Z,3.30
2018-07-10T04:19:14.747Z,2.92
2018-07-10T04:21:55.212Z,3.10
2018-07-10T04:24:23.719Z,2.70
2018-07-10T04:27:30.842Z,3.12
2018-07-10T04:30:09.862Z,2.72
2018-07-10T04:32:39.769Z,3.12
2018-07-10T04:35:08.467Z,2.70
2018-07-10T04:37:39.285Z,2.87
2018-07-10T04:40:07.540Z,3.12
2018-07-10T04:42:42.113Z,2.83
2018-07-10T04:45:12.412Z,3.05
2018-07-10T04:47:44.368Z,3.05
2018-07-10T04:50:17.621Z,3.27
2018-07-10T04:52:52.077Z,3.47
2018-07-10T04:55:20.651Z,3.27
2018-07-10T04:58:07.958Z,3.12
2018-07-10T05:00:45.157Z,4.20
2018-07-10T05:03:15.373Z,3.98
2018-07-10T05:05:44.092Z,3.50
2018-07-10T05:08:13.109Z,4.10
2018-07-10T05:10:41.771Z,3.60
2018-07-10T05:13:10.050Z,3.45
2018-07-10T05:15:39.349Z,2.80
2018-07-10T05:18:10.308Z,3.08
2018-07-10T05:20:42.973Z,3.40
2018-07-10T05:23:12.540Z,3.00
2018-07-10T05:25:43.415Z,3.35
2018-07-10T05:28:12.872Z,3.17
2018-07-10T05:30:43.452Z,3.58
2018-07-10T05:33:13.545Z,4.17
2018-07-10T05:35:42.365Z,4.65
2018-07-10T05:38:10.548Z,5.42
2018-07-10T05:40:39.105Z,6.08
2018-07-10T05:43:13.353Z,7.75
2018-07-10T05:45:41.821Z,8.30
2018-07-10T05:48:10.578Z,7.50
2018-07-10T05:50:39.365Z,8.05
2018-07-10T05:53:10.617Z,8.08
2018-07-10T05:55:46.046Z,8.10
2018-07-10T05:58:14.164Z,7.62
2018-07-10T06:00:42.466Z,7.40
2018-07-10T06:03:10.669Z,6.90
2018-07-10T06:05:38.861Z,6.78
2018-07-10T06:08:07.034Z,6.03
2018-07-10T06:10:35.345Z,5.75
2018-07-10T06:13:04.669Z,5.70
2018-07-10T06:15:33.000Z,8.33
2018-07-10T06:18:01.310Z,11.40
2018-07-10T06:20:29.594Z,11.22
2018-07-10T06:22:58.190Z,12.28
2018-07-10T06:25:35.639Z,12.65
2018-07-10T06:28:13.283Z,13.32
2018-07-10T06:30:42.835Z,14.40
2018-07-10T06:33:23.484Z,16.85
2018-07-10T06:36:02.663Z,18.37
2018-07-10T06:38:30.904Z,16.52
2018-07-10T06:40:59.177Z,16.60
2018-07-10T06:44:00.432Z,15.95
2018-07-10T06:46:31.511Z,15.85
2018-07-10T06:49:18.045Z,16.12
2018-07-10T06:51:46.122Z,14.55
2018-07-10T06:54:14.317Z,14.43
2018-07-10T06:56:45.266Z,14.78
2018-07-10T06:59:13.382Z,9.70
2018-07-10T07:01:41.530Z,7.45
2018-07-10T07:04:10.171Z,5.80
2018-07-10T07:06:38.401Z,5.37
2018-07-10T07:09:06.470Z,5.80
2018-07-10T07:11:35.255Z,6.95
2018-07-10T07:14:03.441Z,5.42
2018-07-10T07:16:31.608Z,5.55
2018-07-10T07:18:59.804Z,4.55
2018-07-10T07:21:28.266Z,5.30
2018-07-10T07:23:56.436Z,5.53
2018-07-10T07:26:24.601Z,4.50
2018-07-10T07:28:52.684Z,6.00
2018-07-10T07:31:20.877Z,4.22
2018-07-10T07:33:49.476Z,4.20
2018-07-10T07:36:18.645Z,4.50
2018-07-10T07:38:46.700Z,4.25
2018-07-10T07:41:15.380Z,4.87
2018-07-10T07:43:43.535Z,4.55
2018-07-10T07:46:12.999Z,4.08
2018-07-10T07:48:41.589Z,4.17
2018-07-10T07:51:09.818Z,4.17
2018-07-10T07:53:38.136Z,4.05
2018-07-10T07:56:07.149Z,4.30
2018-07-10T07:58:35.703Z,4.83
2018-07-10T08:01:04.148Z,4.30
2018-07-10T08:03:32.577Z,4.08
2018-07-10T08:06:00.841Z,4.53
2018-07-10T08:08:29.564Z,4.83
2018-07-10T08:10:58.605Z,4.60
2018-07-10T08:13:26.992Z,5.08
2018-07-10T08:15:55.448Z,5.00
2018-07-10T08:18:23.783Z,4.80
2018-07-10T08:20:52.272Z,4.92
2018-07-10T08:23:20.604Z,5.50
2018-07-10T08:25:49.084Z,4.70
2018-07-10T08:28:17.473Z,4.75
2018-07-10T08:30:45.872Z,4.70
2018-07-10T08:33:14.673Z,4.55
2018-07-10T08:35:43.135Z,4.50
2018-07-10T08:38:12.376Z,4.83
2018-07-10T08:40:41.335Z,4.75
2018-07-10T08:43:09.739Z,5.00
2018-07-10T08:45:38.196Z,4.80
2018-07-10T08:48:06.609Z,5.10
2018-07-10T08:50:34.956Z,4.92
2018-07-10T08:53:03.388Z,5.50
2018-07-10T08:55:31.713Z,5.37
2018-07-10T08:58:00.080Z,4.70
2018-07-10T09:00:28.513Z,4.75
2018-07-10T09:02:56.730Z,5.10
2018-07-10T09:05:25.010Z,5.00
2018-07-10T09:07:53.595Z,5.60
2018-07-10T09:10:21.855Z,4.90
2018-07-10T09:12:50.288Z,5.40
2018-07-10T09:15:18.668Z,5.65
2018-07-10T09:17:46.959Z,5.60
2018-07-10T09:20:25.043Z,5.40
2018-07-10T09:22:53.437Z,5.78
2018-07-10T09:25:24.689Z,5.80
2018-07-10T09:27:54.120Z,5.70
2018-07-10T09:30:22.498Z,5.53
2018-07-10T09:32:50.850Z,5.80
2018-07-10T09:35:19.139Z,6.20
2018-07-10T09:37:47.429Z,5.45
2018-07-10T09:40:16.990Z,5.95
2018-07-10T09:42:54.396Z,6.00
2018-07-10T09:45:25.495Z,5.70
2018-07-10T09:47:53.965Z,5.80
2018-07-10T09:50:22.336Z,5.92
2018-07-10T09:52:50.613Z,5.72
2018-07-10T09:55:18.986Z,5.78
2018-07-10T09:57:47.410Z,5.42
2018-07-10T10:00:15.908Z,5.95
2018-07-10T10:02:44.702Z,6.10
2018-07-10T10:05:13.375Z,6.25
2018-07-10T10:07:41.708Z,6.65
2018-07-10T10:10:10.074Z,6.78
2018-07-10T10:12:38.464Z,7.10
2018-07-10T10:15:06.834Z,8.30
2018-07-10T10:17:35.298Z,7.33
2018-07-10T10:20:03.770Z,6.95
2018-07-10T10:22:32.943Z,6.85
2018-07-10T10:25:03.367Z,7.17
2018-07-10T10:27:32.261Z,6.78
2018-07-10T10:30:01.333Z,7.30
2018-07-10T10:32:29.866Z,7.10
2018-07-10T10:34:58.390Z,7.17
2018-07-10T10:37:26.982Z,7.90
2018-07-10T10:39:56.480Z,6.20
2018-07-10T10:42:26.090Z,7.83
2018-07-10T10:44:55.411Z,8.00
2018-07-10T10:47:24.231Z,8.65
2018-07-10T10:49:53.602Z,9.43
2018-07-10T10:52:22.034Z,8.55
2018-07-10T10:54:50.868Z,8.15
2018-07-10T10:57:19.257Z,8.08
2018-07-10T10:59:51.704Z,8.65
2018-07-10T11:02:21.000Z,9.33
2018-07-10T11:04:50.954Z,9.23
2018-07-10T11:07:20.581Z,9.55
2018-07-10T11:09:49.214Z,10.43
2018-07-10T11:12:18.109Z,9.98
2018-07-10T11:14:46.954Z,9.80
2018-07-10T11:17:28.444Z,10.13
2018-07-10T11:20:05.726Z,10.78
2018-07-10T11:22:44.661Z,10.98
2018-07-10T11:25:13.124Z,10.70
2018-07-10T11:28:05.752Z,11.30
2018-07-10T11:30:34.597Z,11.40
2018-07-10T11:33:05.258Z,12.45
2018-07-10T11:35:34.462Z,12.30
2018-07-10T11:38:06.164Z,12.33
2018-07-10T11:40:35.430Z,11.97
2018-07-10T11:43:06.348Z,12.15
2018-07-10T11:45:34.897Z,12.05
2018-07-10T11:48:03.360Z,12.43
2018-07-10T11:50:31.901Z,12.00
2018-07-10T11:53:00.238Z,13.43
2018-07-10T11:55:28.607Z,13.13
2018-07-10T11:57:57.357Z,12.78
2018-07-10T12:00:25.812Z,12.25
2018-07-10T12:02:54.264Z,12.65
2018-07-10T12:05:22.684Z,13.13
2018-07-10T12:07:55.285Z,12.05
2018-07-10T12:10:25.769Z,11.50
2018-07-10T12:12:54.485Z,11.93
2018-07-10T12:15:23.567Z,12.07
2018-07-10T12:17:55.535Z,13.13
2018-07-10T12:20:30.694Z,12.58
2018-07-10T12:23:00.008Z,12.07
2018-07-10T12:25:32.765Z,12.47
2018-07-10T12:28:01.547Z,11.80
2018-07-10T12:30:30.630Z,12.10
2018-07-10T12:32:58.890Z,12.33
2018-07-10T12:35:27.300Z,12.35
2018-07-10T12:37:55.606Z,13.40
2018-07-10T12:40:24.437Z,12.13
2018-07-10T12:42:53.540Z,12.28
2018-07-10T12:45:21.873Z,11.63
2018-07-10T12:47:50.245Z,11.60
2018-07-10T12:50:18.753Z,13.35
2018-07-10T12:52:47.187Z,15.93
2018-07-10T12:55:15.589Z,12.33
2018-07-10T12:57:45.060Z,10.78
2018-07-10T13:00:14.012Z,11.78
2018-07-10T13:02:49.808Z,12.05
2018-07-10T13:05:20.341Z,11.57
2018-07-10T13:07:48.514Z,10.85
2018-07-10T13:10:17.175Z,10.82
2018-07-10T13:12:45.524Z,11.38
2018-07-10T13:15:14.053Z,10.45
2018-07-10T13:17:45.825Z,9.78
2018-07-10T13:20:15.397Z,11.03
2018-07-10T13:22:43.630Z,10.82
2018-07-10T13:25:11.679Z,10.72
2018-07-10T13:27:39.808Z,10.18
2018-07-10T13:30:08.386Z,10.45
2018-07-10T13:32:36.831Z,11.12
2018-07-10T13:35:05.055Z,10.03
2018-07-10T13:37:35.630Z,10.55
2018-07-10T13:40:05.843Z,10.38
2018-07-10T13:42:45.179Z,9.43
2018-07-10T13:45:14.253Z,10.53
2018-07-10T13:47:42.589Z,10.90
2018-07-10T13:50:12.396Z,10.13
2018-07-10T13:52:40.907Z,10.75
2018-07-10T13:55:09.096Z,9.98
2018-07-10T13:57:37.986Z,9.85
2018-07-10T14:00:06.126Z,10.78
2018-07-10T14:02:37.636Z,10.13
2018-07-10T14:05:05.944Z,11.12
2018-07-10T14:07:34.426Z,12.58
2018-07-10T14:10:02.661Z,12.40
2018-07-10T14:12:30.949Z,15.03
2018-07-10T14:14:59.299Z,13.48
2018-07-10T14:17:27.410Z,11.70
2018-07-10T14:19:55.561Z,11.30
2018-07-10T14:22:25.075Z,10.65
2018-07-10T14:24:53.199Z,8.10
2018-07-10T14:27:21.609Z,9.00
2018-07-10T14:29:49.858Z,7.92
2018-07-10T14:32:18.075Z,8.78
2018-07-10T14:34:46.204Z,7.75
2018-07-10T14:37:14.368Z,7.35
2018-07-10T14:39:42.546Z,6.62
2018-07-10T14:42:10.658Z,6.80
2018-07-10T14:44:40.222Z,6.60
2018-07-10T14:47:08.849Z,6.80
2018-07-10T14:49:37.225Z,7.28
2018-07-10T14:52:05.459Z,6.87
2018-07-10T14:54:33.805Z,6.70
2018-07-10T14:57:02.257Z,6.85
2018-07-10T14:59:30.487Z,6.42
2018-07-10T15:01:58.648Z,6.30
2018-07-10T15:04:26.925Z,5.67
2018-07-10T15:06:55.996Z,5.83
2018-07-10T15:09:24.293Z,6.67
2018-07-10T15:11:52.442Z,6.37
2018-07-10T15:14:20.507Z,5.90
2018-07-10T15:16:54.362Z,6.25
2018-07-10T15:19:22.489Z,5.75
2018-07-10T15:21:51.254Z,5.80
2018-07-10T15:24:19.214Z,5.37
2018-07-10T15:26:47.421Z,5.78
2018-07-10T15:29:21.174Z,5.30
2018-07-10T15:31:50.592Z,5.47
2018-07-10T15:34:18.791Z,5.40
2018-07-10T15:36:46.943Z,5.78
2018-07-10T15:39:15.143Z,5.50
2018-07-10T15:41:43.432Z,5.25
2018-07-10T15:44:11.600Z,5.78
2018-07-10T15:46:39.808Z,5.75
2018-07-10T15:49:07.947Z,5.95
2018-07-10T15:51:36.085Z,6.00
2018-07-10T15:54:04.825Z,5.97
2018-07-10T15:56:32.972Z,6.03
2018-07-10T15:59:01.244Z,6.33
2018-07-10T16:01:29.469Z,5.78
2018-07-10T16:03:57.737Z,5.58
2018-07-10T16:06:27.513Z,5.83
2018-07-10T16:09:06.838Z,5.75
2018-07-10T16:11:35.341Z,5.58
2018-07-10T16:14:03.955Z,5.33
2018-07-10T16:16:36.816Z,5.65
2018-07-10T16:19:11.352Z,5.30
2018-07-10T16:21:52.005Z,5.60
2018-07-10T16:24:20.818Z,5.35
2018-07-10T16:26:48.968Z,5.40
2018-07-10T16:29:19.372Z,6.47
2018-07-10T16:31:48.899Z,5.25
2018-07-10T16:34:17.190Z,5.50
2018-07-10T16:36:45.380Z,5.40
2018-07-10T16:39:13.495Z,5.08
2018-07-10T16:41:47.686Z,5.40
2018-07-10T16:44:15.856Z,5.87
2018-07-10T16:46:47.507Z,5.70
2018-07-10T16:49:19.556Z,6.33
2018-07-10T16:52:06.750Z,5.95
2018-07-10T16:54:35.115Z,6.05
2018-07-10T16:57:03.686Z,6.10
2018-07-10T16:59:31.971Z,6.20
2018-07-10T17:02:00.158Z,6.60
2018-07-10T17:04:28.396Z,6.60
2018-07-10T17:06:56.570Z,7.22
2018-07-10T17:09:24.832Z,6.30
2018-07-10T17:11:53.080Z,7.47
2018-07-10T17:14:21.197Z,6.90
2018-07-10T17:16:49.626Z,7.50
2018-07-10T17:19:17.805Z,7.45
2018-07-10T17:21:46.049Z,6.87
2018-07-10T17:24:14.167Z,9.18
2018-07-10T17:26:42.397Z,7.33
2018-07-10T17:29:11.980Z,7.92
2018-07-10T17:31:40.228Z,8.35
2018-07-10T17:34:08.517Z,7.58
2018-07-10T17:36:36.714Z,7.50
2018-07-10T17:39:06.007Z,7.50
2018-07-10T17:41:36.390Z,8.58
2018-07-10T17:44:06.698Z,7.20
2018-07-10T17:46:35.689Z,8.15
2018-07-10T17:49:04.909Z,7.58
2018-07-10T17:51:33.579Z,8.25
2018-07-10T17:54:02.160Z,8.18
2018-07-10T17:56:30.635Z,7.55
2018-07-10T17:58:59.510Z,7.60
2018-07-10T18:01:27.672Z,7.58
2018-07-10T18:03:55.719Z,7.05
2018-07-10T18:06:23.742Z,10.05
2018-07-10T18:08:51.919Z,7.75
2018-07-10T18:11:20.087Z,6.75
2018-07-10T18:13:49.184Z,7.47
2018-07-10T18:16:17.411Z,6.80
2018-07-10T18:18:45.909Z,6.87
2018-07-10T18:21:14.108Z,6.97
2018-07-10T18:23:42.361Z,7.15
2018-07-10T18:26:10.471Z,7.50
2018-07-10T18:28:38.825Z,7.53
2018-07-10T18:31:07.182Z,7.90
2018-07-10T18:33:35.303Z,7.08
2018-07-10T18:36:03.451Z,6.95
2018-07-10T18:38:31.633Z,7.40
2018-07-10T18:41:00.050Z,6.62
2018-07-10T18:43:28.346Z,7.12
2018-07-10T18:45:56.581Z,7.00
2018-07-10T18:48:26.823Z,6.72
2018-07-10T18:50:56.048Z,6.87
2018-07-10T18:53:24.943Z,7.12
2018-07-10T18:55:53.519Z,6.60
2018-07-10T18:59:03.274Z,7.35
2018-07-10T19:01:41.718Z,6.90
2018-07-10T19:04:10.025Z,7.53
2018-07-10T19:06:38.943Z,6.40
2018-07-10T19:09:07.706Z,6.87
2018-07-10T19:11:36.055Z,7.03
2018-07-10T19:14:04.194Z,6.95
2018-07-10T19:16:32.844Z,7.00
2018-07-10T19:19:03.248Z,6.58
2018-07-10T19:21:37.269Z,7.03
2018-07-10T19:24:10.783Z,7.17
2018-07-10T19:26:39.123Z,6.87
2018-07-10T19:29:25.108Z,7.42
2018-07-10T19:31:54.089Z,7.05
2018-07-10T19:34:22.395Z,6.92
2018-07-10T19:36:50.614Z,7.05
2018-07-10T19:39:18.817Z,6.60
2018-07-10T19:41:47.097Z,7.33
2018-07-10T19:44:15.287Z,6.90
2018-07-10T19:46:43.607Z,7.15
2018-07-10T19:49:12.934Z,7.22
2018-07-10T19:51:41.929Z,7.05
2018-07-10T19:54:15.385Z,6.90
2018-07-10T19:56:43.696Z,6.80
2018-07-10T19:59:13.334Z,6.75
2018-07-10T20:01:46.511Z,7.00
2018-07-10T20:05:26.991Z,7.22
2018-07-10T20:08:04.865Z,7.03
2018-07-10T20:10:41.429Z,6.60
2018-07-10T20:13:18.394Z,6.90
2018-07-10T20:15:53.598Z,6.78
2018-07-10T20:20:32.231Z,7.35
2018-07-10T20:23:38.758Z,7.45
2018-07-10T20:28:27.216Z,7.97
2018-07-10T20:31:05.497Z,7.37
2018-07-10T20:33:56.186Z,7.20
2018-07-10T20:36:25.294Z,7.50
2018-07-10T20:38:56.478Z,6.87
2018-07-10T20:41:30.631Z,7.40
2018-07-10T20:43:58.908Z,8.05
2018-07-10T20:46:27.075Z,7.40
2018-07-10T20:49:01.252Z,7.40
2018-07-10T20:51:36.545Z,7.78
2018-07-10T20:54:14.596Z,7.35
2018-07-10T20:56:58.605Z,6.83
2018-07-10T20:59:43.952Z,7.65
2018-07-10T21:02:19.445Z,7.58
2018-07-10T21:05:12.047Z,7.05
2018-07-10T21:07:54.463Z,6.95
2018-07-10T21:10:31.734Z,7.00
2018-07-10T21:13:08.714Z,7.00
2018-07-10T21:15:54.050Z,7.22
2018-07-10T21:18:37.464Z,7.20
2018-07-10T21:21:12.464Z,6.83
2018-07-10T21:23:53.796Z,7.10
2018-07-10T21:27:29.219Z,7.45
2018-07-10T21:30:20.008Z,6.95
2018-07-10T21:34:00.794Z,7.15
2018-07-10T21:36:36.008Z,7.15
2018-07-10T21:39:14.479Z,7.22
2018-07-10T21:41:56.388Z,7.40
2018-07-10T21:45:35.861Z,8.05
2018-07-10T21:48:31.012Z,6.97
2018-07-10T21:50:59.223Z,7.65
2018-07-10T21:53:27.469Z,7.03
2018-07-10T21:55:55.497Z,7.10
2018-07-10T21:58:23.667Z,7.30
2018-07-10T22:01:58.866Z,7.35
2018-07-10T22:04:28.397Z,7.90
2018-07-10T22:06:58.746Z,7.80
2018-07-10T22:09:28.781Z,7.72
2018-07-10T22:11:59.460Z,7.20
2018-07-10T22:14:27.769Z,7.65
2018-07-10T22:16:56.977Z,7.50
2018-07-10T22:19:28.416Z,8.13
2018-07-10T22:21:56.972Z,7.40
2018-07-10T22:24:26.897Z,7.42
2018-07-10T22:26:58.234Z,7.55
2018-07-10T22:29:32.143Z,7.75
2018-07-10T22:32:01.757Z,7.58
2018-07-10T22:34:31.349Z,7.55
2018-07-10T22:36:59.676Z,7.35
2018-07-10T22:39:28.759Z,7.05
2018-07-10T22:41:59.476Z,7.22
2018-07-10T22:44:29.405Z,7.15
2018-07-10T22:46:59.604Z,7.55
2018-07-10T22:49:27.866Z,7.20
2018-07-10T22:51:59.084Z,7.12
2018-07-10T22:54:28.299Z,6.95
2018-07-10T22:56:56.977Z,6.90
2018-07-10T22:59:25.272Z,6.78
2018-07-10T23:01:53.549Z,6.87
2018-07-10T23:04:22.605Z,7.22
2018-07-10T23:06:50.933Z,6.83
2018-07-10T23:09:19.013Z,6.15
2018-07-10T23:11:47.530Z,6.40
2018-07-10T23:14:15.716Z,5.87
2018-07-10T23:16:44.359Z,6.10
2018-07-10T23:19:12.640Z,6.30
2018-07-10T23:21:41.789Z,6.20
2018-07-10T23:24:10.142Z,6.12
2018-07-10T23:26:40.229Z,6.58
2018-07-10T23:29:09.433Z,6.03
2018-07-10T23:31:39.658Z,6.05
2018-07-10T23:34:11.465Z,5.97
2018-07-10T23:36:39.793Z,6.20
2018-07-10T23:39:11.526Z,5.75
2018-07-10T23:42:01.338Z,5.75
2018-07-10T23:44:38.992Z,6.08
2018-07-10T23:47:10.240Z,5.90
2018-07-10T23:49:38.457Z,6.03
2018-07-10T23:52:17.468Z,5.70
2018-07-10T23:54:45.550Z,5.10
2018-07-10T23:57:13.836Z,5.40
2018-07-10T23:59:42.309Z,5.65
